Time;durP1;ratioP1;P1;durP2;ratioP2;P2;SDS_P1;SDS_P2;PMS_P1;PMS_P2;Temp;Humidity;BMP_temperature;BMP_pressure;BME280_temperature;BME280_humidity;BME280_pressure;Samples;Min_cycle;Max_cycle;Signal;HPM_P1;HPM_P2
2022/10/31 00:01:24;;;;;;;3.63;0.52;;;28.20;56.00;;;;;;5040567;28;20361;-63
2022/10/31 00:03:51;;;;;;;6.38;0.60;;;28.20;55.50;;;;;;5045127;28;20035;-67
2022/10/31 00:06:19;;;;;;;3.78;0.70;;;28.00;55.70;;;;;;5030172;28;20068;-63
2022/10/31 00:08:47;;;;;;;3.10;0.60;;;28.00;55.90;;;;;;5035171;28;20017;-63
2022/10/31 00:11:15;;;;;;;3.30;0.80;;;28.00;56.40;;;;;;5048037;28;20029;-63
2022/10/31 00:13:42;;;;;;;2.70;0.70;;;28.00;55.90;;;;;;5045784;28;20057;-63
2022/10/31 00:16:23;;;;;;;0.90;0.35;;;27.90;56.80;;;;;;5033118;28;20026;-63
2022/10/31 00:19:04;;;;;;;2.35;0.50;;;27.80;55.90;;;;;;5032186;28;20057;-62
2022/10/31 00:21:32;;;;;;;1.67;0.70;;;27.80;56.20;;;;;;5021888;28;20512;-63
2022/10/31 00:24:00;;;;;;;6.63;0.95;;;27.90;56.20;;;;;;5027359;28;20025;-64
2022/10/31 00:26:32;;;;;;;5.45;0.98;;;28.30;57.40;;;;;;5044839;28;20013;-63
2022/10/31 00:29:00;;;;;;;3.28;0.50;;;28.80;56.40;;;;;;5026721;28;20474;-65
2022/10/31 00:31:28;;;;;;;1.85;0.40;;;29.20;56.40;;;;;;5029873;28;20025;-62
2022/10/31 00:33:55;;;;;;;0.75;0.55;;;29.60;55.70;;;;;;5029409;28;20123;-62
2022/10/31 00:36:22;;;;;;;1.35;0.45;;;29.90;53.70;;;;;;5044620;28;20112;-63
2022/10/31 00:38:49;;;;;;;4.22;0.50;;;30.30;55.20;;;;;;5044244;28;20238;-63
2022/10/31 00:41:18;;;;;;;4.22;0.60;;;30.40;53.80;;;;;;5039577;28;20021;-63
2022/10/31 00:43:46;;;;;;;2.08;0.80;;;30.80;53.40;;;;;;5033485;28;20030;-62
2022/10/31 00:46:13;;;;;;;5.07;0.70;;;31.00;53.50;;;;;;5045455;28;20550;-63
2022/10/31 00:48:41;;;;;;;2.53;0.40;;;31.20;53.80;;;;;;5033049;28;20051;-62
2022/10/31 00:51:09;;;;;;;2.38;0.55;;;31.50;54.20;;;;;;5032673;28;20029;-63
2022/10/31 00:53:36;;;;;;;2.70;0.75;;;31.90;52.10;;;;;;5033057;28;20072;-65
2022/10/31 00:56:04;;;;;;;1.65;0.50;;;32.80;54.00;;;;;;5038621;28;20485;-63
2022/10/31 00:58:31;;;;;;;4.85;0.60;;;32.90;51.30;;;;;;5039074;28;20029;-63
2022/10/31 01:00:58;;;;;;;2.90;0.57;;;32.90;51.00;;;;;;5028031;28;20120;-63
2022/10/31 01:03:28;;;;;;;1.23;0.40;;;32.60;50.50;;;;;;5035334;28;20025;-63
2022/10/31 01:06:08;;;;;;;3.47;0.50;;;32.30;51.20;;;;;;5029528;28;20049;-62
2022/10/31 01:08:37;;;;;;;1.65;0.50;;;32.00;52.20;;;;;;5030331;28;20052;-63
2022/10/31 01:11:13;;;;;;;2.85;0.82;;;32.00;52.40;;;;;;5036904;28;20401;-63
2022/10/31 01:13:41;;;;;;;1.70;0.70;;;32.20;52.90;;;;;;5034616;28;20025;-63
2022/10/31 01:16:12;;;;;;;3.47;1.02;;;32.30;53.80;;;;;;5028542;28;20037;-63
2022/10/31 01:18:39;;;;;;;1.85;0.60;;;32.70;53.10;;;;;;5033205;28;20033;-63
2022/10/31 01:21:12;;;;;;;5.55;0.60;;;32.80;52.50;;;;;;5029990;28;20079;-63
2022/10/31 01:23:40;;;;;;;5.47;0.50;;;32.60;52.00;;;;;;5031084;28;20032;-62
2022/10/31 01:26:16;;;;;;;2.72;0.70;;;32.10;52.10;;;;;;5043422;28;20021;-62
2022/10/31 01:28:57;;;;;;;4.22;0.70;;;31.80;52.80;;;;;;5026665;28;20038;-62
2022/10/31 01:31:27;;;;;;;2.85;0.68;;;31.40;54.10;;;;;;5028311;28;20037;-62
2022/10/31 01:33:56;;;;;;;5.88;0.93;;;31.20;54.10;;;;;;5036391;28;20036;-62
2022/10/31 01:36:29;;;;;;;4.25;0.50;;;31.10;54.90;;;;;;5045773;28;20083;-62
2022/10/31 01:38:59;;;;;;;4.53;0.57;;;31.00;55.10;;;;;;5031711;28;20041;-62
2022/10/31 01:41:32;;;;;;;4.43;0.70;;;30.60;55.20;;;;;;5034448;28;20013;-62
2022/10/31 01:44:01;;;;;;;4.88;0.88;;;30.30;55.00;;;;;;5032916;28;20031;-62
2022/10/31 01:46:42;;;;;;;5.50;0.40;;;30.00;55.00;;;;;;5035431;28;20031;-62
2022/10/31 01:50:04;;;;;;;1.70;0.50;;;29.60;54.70;;;;;;5040504;28;20382;-62
2022/10/31 01:52:38;;;;;;;5.43;0.50;;;29.20;56.30;;;;;;4961474;28;20520;-62
2022/10/31 01:55:36;;;;;;;1.45;0.47;;;28.50;57.80;;;;;;5040921;28;20591;-62
2022/10/31 01:58:10;;;;;;;1.23;0.40;;;28.20;59.40;;;;;;5030388;28;20520;-61
2022/10/31 02:00:38;;;;;;;0.80;0.32;;;27.90;66.10;;;;;;5017090;28;20031;-62
2022/10/31 02:03:05;;;;;;;1.42;0.40;;;27.10;67.50;;;;;;5028010;28;20041;-61
2022/10/31 02:05:33;;;;;;;2.28;0.40;;;26.70;69.00;;;;;;5027855;28;20022;-62
2022/10/31 02:08:15;;;;;;;1.17;0.30;;;26.40;68.80;;;;;;5044386;28;20025;-61
2022/10/31 02:10:44;;;;;;;0.40;0.20;;;26.20;68.50;;;;;;5023940;28;20503;-62
2022/10/31 02:13:12;;;;;;;0.40;0.30;;;26.00;69.20;;;;;;5039447;28;20026;-62
2022/10/31 02:15:41;;;;;;;3.88;0.82;;;26.00;69.40;;;;;;5029308;28;20021;-62
2022/10/31 02:18:08;;;;;;;1.77;0.70;;;26.00;69.50;;;;;;5029599;28;20039;-62
2022/10/31 02:20:50;;;;;;;2.53;0.60;;;26.00;69.30;;;;;;5035457;28;20032;-62
2022/10/31 02:23:40;;;;;;;1.02;0.40;;;26.10;69.10;;;;;;5038430;28;20103;-62
2022/10/31 02:26:10;;;;;;;0.47;0.30;;;26.10;69.30;;;;;;5024374;28;20074;-62
2022/10/31 02:28:53;;;;;;;1.02;0.50;;;26.10;69.50;;;;;;5037901;28;20131;-62
2022/10/31 02:31:31;;;;;;;0.68;0.50;;;26.10;69.40;;;;;;5031999;28;20097;-62
2022/10/31 02:34:08;;;;;;;2.53;0.60;;;26.10;69.70;;;;;;5031358;28;20056;-62
2022/10/31 02:36:58;;;;;;;2.35;0.57;;;26.10;69.80;;;;;;5022585;28;20018;-62
2022/10/31 02:39:28;;;;;;;8.23;0.60;;;26.00;69.50;;;;;;5027419;28;20041;-62
2022/10/31 02:42:19;;;;;;;3.97;0.55;;;26.00;70.40;;;;;;5043397;28;20029;-62
2022/10/31 02:45:11;;;;;;;0.93;0.40;;;25.90;70.10;;;;;;5019939;28;20025;-62
2022/10/31 02:47:40;;;;;;;2.50;0.50;;;25.80;70.90;;;;;;5033888;28;20067;-62
2022/10/31 02:50:26;;;;;;;1.20;0.60;;;25.80;71.20;;;;;;5044754;28;20512;-62
2022/10/31 02:52:53;;;;;;;0.90;0.43;;;25.80;71.60;;;;;;5032863;28;20501;-62
2022/10/31 02:55:23;;;;;;;1.05;0.70;;;25.90;71.70;;;;;;5037857;28;20021;-62
2022/10/31 02:58:13;;;;;;;1.83;0.50;;;25.90;72.40;;;;;;5030741;28;20033;-62
2022/10/31 03:00:46;;;;;;;3.38;0.80;;;25.90;71.90;;;;;;5024516;28;20111;-63
2022/10/31 03:03:25;;;;;;;1.73;0.55;;;25.90;72.80;;;;;;5035161;28;20036;-63
2022/10/31 03:06:29;;;;;;;7.55;0.95;;;25.80;75.10;;;;;;5026958;28;20030;-62
2022/10/31 03:09:04;;;;;;;1.42;0.50;;;25.60;78.60;;;;;;5029094;28;20029;-63
2022/10/31 03:11:49;;;;;;;5.72;0.50;;;25.30;79.60;;;;;;5026283;28;20022;-65
2022/10/31 03:14:27;;;;;;;1.13;0.60;;;25.20;84.30;;;;;;5033860;28;20112;-63
2022/10/31 03:16:59;;;;;;;1.65;0.73;;;25.00;89.20;;;;;;5027986;28;20448;-62
2022/10/31 03:19:39;;;;;;;1.23;0.60;;;24.90;90.00;;;;;;5029042;28;20021;-62
2022/10/31 03:22:29;;;;;;;1.10;0.45;;;24.80;90.80;;;;;;5028597;28;20486;-62
2022/10/31 03:24:58;;;;;;;1.40;0.60;;;24.80;91.20;;;;;;5030327;28;20030;-62
2022/10/31 03:27:28;;;;;;;2.13;0.43;;;24.80;90.80;;;;;;5038724;28;20033;-62
2022/10/31 03:29:59;;;;;;;0.75;0.43;;;24.80;89.50;;;;;;5033248;28;20037;-63
2022/10/31 03:32:33;;;;;;;2.85;0.40;;;24.80;87.30;;;;;;5029135;28;21142;-64
2022/10/31 03:35:03;;;;;;;1.23;0.45;;;24.70;88.50;;;;;;5024712;28;20091;-63
2022/10/31 03:37:33;;;;;;;0.43;0.40;;;24.80;87.30;;;;;;5034122;28;20091;-63
2022/10/31 03:40:04;;;;;;;2.10;0.40;;;24.80;86.40;;;;;;5034796;28;20068;-64
2022/10/31 03:42:34;;;;;;;0.95;0.57;;;24.90;87.40;;;;;;5037916;28;20074;-63
2022/10/31 03:45:20;;;;;;;0.68;0.35;;;25.10;87.60;;;;;;5033070;28;20029;-62
2022/10/31 03:47:47;;;;;;;1.65;0.50;;;25.30;88.90;;;;;;5034494;28;20173;-62
2022/10/31 03:50:16;;;;;;;2.60;0.60;;;25.50;85.20;;;;;;5026080;28;20444;-63
2022/10/31 03:52:58;;;;;;;0.75;0.38;;;25.60;84.30;;;;;;5027139;28;20120;-63
2022/10/31 03:56:17;;;;;;;1.05;0.40;;;25.80;86.50;;;;;;5039476;28;20103;-63
2022/10/31 03:59:08;;;;;;;1.20;0.60;;;25.80;86.50;;;;;;5037033;28;20033;-62
2022/10/31 04:01:39;;;;;;;1.15;0.55;;;25.70;80.00;;;;;;5024010;28;20033;-62
2022/10/31 04:04:08;;;;;;;0.50;0.30;;;25.80;80.00;;;;;;5026220;28;20670;-62
2022/10/31 04:06:38;;;;;;;0.88;0.30;;;25.90;81.00;;;;;;5039054;28;20431;-62
2022/10/31 04:09:09;;;;;;;0.52;0.40;;;25.90;77.90;;;;;;5030186;28;20033;-63
2022/10/31 04:11:41;;;;;;;4.20;1.23;;;25.80;77.80;;;;;;5035078;28;20070;-62
2022/10/31 04:14:11;;;;;;;0.45;0.35;;;25.80;77.60;;;;;;5028942;28;20023;-62
2022/10/31 04:16:43;;;;;;;3.67;0.50;;;25.60;77.40;;;;;;5030390;28;20109;-62
2022/10/31 04:19:12;;;;;;;0.52;0.30;;;25.60;77.80;;;;;;5032477;28;20512;-62
2022/10/31 04:21:39;;;;;;;0.68;0.40;;;25.60;78.90;;;;;;5035662;28;20028;-62
2022/10/31 04:24:07;;;;;;;0.65;0.45;;;25.60;77.40;;;;;;5031031;28;20127;-62
2022/10/31 04:26:34;;;;;;;1.05;0.50;;;25.60;77.60;;;;;;5038126;28;20448;-62
2022/10/31 04:29:01;;;;;;;5.88;0.60;;;25.60;77.90;;;;;;5038659;28;20032;-62
2022/10/31 04:31:28;;;;;;;4.57;0.40;;;25.70;77.80;;;;;;5032516;28;20382;-63
2022/10/31 04:33:56;;;;;;;1.58;0.50;;;25.80;78.20;;;;;;5029401;28;20069;-63
2022/10/31 04:36:23;;;;;;;2.17;0.47;;;25.90;77.90;;;;;;5028134;28;20060;-63
2022/10/31 04:38:50;;;;;;;3.20;0.50;;;25.90;77.50;;;;;;5034309;28;20064;-62
2022/10/31 04:41:17;;;;;;;0.38;0.30;;;25.90;77.60;;;;;;5037890;28;20051;-62
2022/10/31 04:43:45;;;;;;;0.98;0.55;;;25.90;77.40;;;;;;5037830;28;20108;-62
2022/10/31 04:46:12;;;;;;;0.93;0.63;;;25.80;77.20;;;;;;5046104;28;20056;-62
2022/10/31 04:48:39;;;;;;;3.50;0.55;;;25.80;77.20;;;;;;5033230;28;20066;-62
2022/10/31 04:51:06;;;;;;;2.67;0.60;;;25.70;77.80;;;;;;5035000;28;20104;-62
2022/10/31 04:53:33;;;;;;;0.30;0.20;;;25.60;77.80;;;;;;5037650;28;20041;-62
2022/10/31 04:56:01;;;;;;;2.15;0.40;;;25.60;77.90;;;;;;5032260;28;20053;-62
2022/10/31 04:58:28;;;;;;;2.10;0.40;;;25.50;76.40;;;;;;5035252;28;20455;-62
2022/10/31 05:00:56;;;;;;;1.98;0.50;;;25.50;77.80;;;;;;5041324;28;20025;-62
2022/10/31 05:03:24;;;;;;;0.32;0.30;;;25.50;76.50;;;;;;5028044;28;20029;-62
2022/10/31 05:05:51;;;;;;;1.35;0.40;;;25.50;76.70;;;;;;5028724;28;20504;-62
2022/10/31 05:08:18;;;;;;;1.05;0.40;;;25.50;76.00;;;;;;5027349;28;20057;-62
2022/10/31 05:10:45;;;;;;;5.07;1.15;;;25.70;75.70;;;;;;5033357;28;20042;-62
2022/10/31 05:13:14;;;;;;;0.80;0.35;;;25.80;76.80;;;;;;5034392;28;20035;-63
2022/10/31 05:15:41;;;;;;;0.73;0.30;;;26.00;75.60;;;;;;5030140;28;20466;-63
2022/10/31 05:18:09;;;;;;;4.68;0.50;;;26.60;74.20;;;;;;5026909;28;20033;-62
2022/10/31 05:20:36;;;;;;;1.55;0.57;;;27.10;72.30;;;;;;5032351;28;20036;-62
2022/10/31 05:23:03;;;;;;;0.43;0.30;;;27.30;71.90;;;;;;5028232;28;20051;-62
2022/10/31 05:25:30;;;;;;;0.50;0.30;;;27.40;70.50;;;;;;5024353;28;20565;-63
2022/10/31 05:27:58;;;;;;;2.28;0.40;;;27.40;71.20;;;;;;5028059;28;20037;-62
2022/10/31 05:30:31;;;;;;;1.02;0.50;;;27.40;70.70;;;;;;5034893;28;20025;-62
2022/10/31 05:32:59;;;;;;;1.27;0.45;;;27.30;70.40;;;;;;5035993;28;20501;-62
2022/10/31 05:35:29;;;;;;;3.25;0.60;;;27.00;69.80;;;;;;5027395;28;20386;-61
2022/10/31 05:37:57;;;;;;;1.65;0.40;;;26.90;70.40;;;;;;5036938;28;20448;-62
2022/10/31 05:40:25;;;;;;;2.25;0.45;;;26.80;70.20;;;;;;5031571;28;20078;-63
2022/10/31 05:42:55;;;;;;;4.93;0.60;;;26.80;70.80;;;;;;5031784;28;20033;-62
2022/10/31 05:45:23;;;;;;;1.00;0.50;;;26.90;71.00;;;;;;5028199;28;20025;-61
2022/10/31 05:47:55;;;;;;;0.50;0.50;;;26.90;70.50;;;;;;5025795;28;20048;-63
2022/10/31 05:50:23;;;;;;;8.50;0.80;;;26.90;70.70;;;;;;5032533;28;20029;-61
2022/10/31 05:53:03;;;;;;;1.10;0.60;;;26.90;70.80;;;;;;5027356;28;20118;-62
2022/10/31 05:55:31;;;;;;;0.68;0.55;;;26.70;70.00;;;;;;5029515;28;20032;-62
2022/10/31 05:57:59;;;;;;;3.20;0.60;;;26.60;70.50;;;;;;5056673;28;20061;-62
2022/10/31 06:00:27;;;;;;;1.60;0.60;;;26.50;70.80;;;;;;5034763;28;20072;-61
2022/10/31 06:03:01;;;;;;;1.95;0.70;;;26.40;71.20;;;;;;5032480;28;20524;-62
2022/10/31 06:05:28;;;;;;;;;;;26.30;71.80;;;;;;5028351;28;20033;-63
2022/10/31 06:07:56;;;;;;;2.92;0.70;;;26.40;72.00;;;;;;5027758;28;19916;-63
2022/10/31 06:10:23;;;;;;;1.98;1.20;;;26.30;72.10;;;;;;5029099;28;20036;-63
2022/10/31 06:12:50;;;;;;;1.52;0.70;;;26.40;72.60;;;;;;5034660;28;20029;-62
2022/10/31 06:15:18;;;;;;;1.52;0.80;;;26.30;72.60;;;;;;5027652;28;20052;-62
2022/10/31 06:17:46;;;;;;;1.83;0.82;;;26.40;72.60;;;;;;5026779;28;20116;-62
2022/10/31 06:20:13;;;;;;;3.92;1.15;;;26.30;72.70;;;;;;5037937;28;20033;-62
2022/10/31 06:22:40;;;;;;;0.80;0.60;;;26.30;72.70;;;;;;5035111;28;20100;-62
2022/10/31 06:25:08;;;;;;;1.10;0.70;;;26.20;73.20;;;;;;5032459;28;20478;-62
2022/10/31 06:27:35;;;;;;;1.38;0.70;;;26.20;73.40;;;;;;5032650;28;20079;-62
2022/10/31 06:30:02;;;;;;;2.00;0.50;;;26.20;73.80;;;;;;5028296;28;20028;-62
2022/10/31 06:32:29;;;;;;;1.42;1.02;;;26.10;74.00;;;;;;5032104;28;20022;-62
2022/10/31 06:34:57;;;;;;;3.05;1.20;;;26.00;74.80;;;;;;5026319;28;20025;-62
2022/10/31 06:37:24;;;;;;;2.00;0.93;;;26.00;74.50;;;;;;5035726;28;20025;-63
2022/10/31 06:39:51;;;;;;;1.77;0.50;;;26.00;74.40;;;;;;5027197;28;22377;-61
2022/10/31 06:42:18;;;;;;;2.50;0.55;;;25.90;74.50;;;;;;5030616;28;20567;-61
2022/10/31 06:44:45;;;;;;;0.88;0.60;;;25.80;75.10;;;;;;5035623;28;20028;-61
2022/10/31 06:47:13;;;;;;;1.38;0.55;;;25.70;75.30;;;;;;5030629;28;20037;-62
2022/10/31 06:49:40;;;;;;;1.35;0.50;;;25.70;76.00;;;;;;5043469;28;20089;-60
2022/10/31 06:52:07;;;;;;;3.22;0.70;;;25.60;75.80;;;;;;5027215;28;20076;-63
2022/10/31 06:54:34;;;;;;;1.48;0.55;;;25.60;75.80;;;;;;5039578;28;20470;-61
2022/10/31 06:57:01;;;;;;;0.98;0.55;;;25.50;76.10;;;;;;5040516;28;20078;-61
2022/10/31 06:59:29;;;;;;;2.72;0.82;;;25.50;76.60;;;;;;5035825;28;20033;-67
2022/10/31 07:01:57;;;;;;;1.48;0.80;;;25.40;77.00;;;;;;5047947;28;20028;-62
2022/10/31 07:04:24;;;;;;;3.60;0.60;;;25.30;76.90;;;;;;5032835;28;20033;-62
2022/10/31 07:06:52;;;;;;;1.95;0.70;;;25.30;77.50;;;;;;5034065;28;20037;-63
2022/10/31 07:09:20;;;;;;;1.50;1.15;;;25.30;77.10;;;;;;5028724;28;20494;-62
2022/10/31 07:11:47;;;;;;;1.25;0.77;;;25.30;77.40;;;;;;5032296;28;20443;-62
2022/10/31 07:14:15;;;;;;;0.90;0.60;;;25.30;77.50;;;;;;5036211;28;20032;-62
2022/10/31 07:16:42;;;;;;;1.00;0.60;;;25.20;77.30;;;;;;5041085;28;20025;-63
2022/10/31 07:19:09;;;;;;;1.08;0.70;;;25.20;77.80;;;;;;5040221;28;20029;-63
2022/10/31 07:21:36;;;;;;;4.10;0.60;;;25.20;78.20;;;;;;5039591;28;20115;-63
2022/10/31 07:24:04;;;;;;;3.20;0.70;;;25.20;77.90;;;;;;5031347;28;20025;-62
2022/10/31 07:26:31;;;;;;;1.90;0.90;;;25.20;77.90;;;;;;5033408;28;20022;-62
2022/10/31 07:28:59;;;;;;;2.97;1.00;;;25.20;77.90;;;;;;5023454;28;20425;-62
2022/10/31 07:31:26;;;;;;;4.38;1.15;;;25.20;78.30;;;;;;5028807;28;20026;-62
2022/10/31 07:33:53;;;;;;;1.60;0.70;;;25.20;78.10;;;;;;5041290;28;20036;-62
2022/10/31 07:36:20;;;;;;;1.27;0.52;;;25.20;78.20;;;;;;5030089;28;20045;-62
2022/10/31 07:38:48;;;;;;;2.15;0.68;;;25.10;77.80;;;;;;5033157;28;20021;-64
2022/10/31 07:41:15;;;;;;;1.65;0.80;;;25.20;77.80;;;;;;5037156;28;20037;-62
2022/10/31 07:43:42;;;;;;;2.33;0.73;;;25.20;76.20;;;;;;5030581;28;20037;-62
2022/10/31 07:46:11;;;;;;;1.83;0.90;;;25.30;75.60;;;;;;5045293;28;20095;-62
2022/10/31 07:48:38;;;;;;;2.33;1.08;;;25.40;75.60;;;;;;5033049;28;20029;-63
2022/10/31 07:51:06;;;;;;;2.03;0.90;;;25.40;75.90;;;;;;5040827;28;20148;-62
2022/10/31 07:53:34;;;;;;;7.32;1.15;;;25.30;76.50;;;;;;5024543;28;20083;-59
2022/10/31 07:56:01;;;;;;;3.42;1.10;;;25.30;76.10;;;;;;5025452;28;20083;-62
2022/10/31 07:58:28;;;;;;;2.50;0.63;;;25.30;76.80;;;;;;5035559;28;20028;-59
2022/10/31 08:00:55;;;;;;;2.53;0.77;;;25.20;77.00;;;;;;5027429;28;20025;-60
2022/10/31 08:03:22;;;;;;;1.58;0.80;;;25.20;77.30;;;;;;5038665;28;20032;-60
2022/10/31 08:05:50;;;;;;;3.53;0.80;;;25.10;77.60;;;;;;5031589;28;20111;-60
2022/10/31 08:08:17;;;;;;;2.28;0.88;;;25.00;77.90;;;;;;5026712;28;20446;-59
2022/10/31 08:10:44;;;;;;;1.88;1.35;;;25.00;78.80;;;;;;5034194;28;20469;-60
2022/10/31 08:13:14;;;;;;;0.90;0.60;;;25.00;77.90;;;;;;5032127;28;20032;-60
2022/10/31 08:15:41;;;;;;;1.75;0.80;;;25.00;78.20;;;;;;5025322;28;20115;-59
2022/10/31 08:18:14;;;;;;;2.78;0.90;;;25.00;77.90;;;;;;5024788;28;20060;-60
2022/10/31 08:20:43;;;;;;;1.40;0.68;;;25.10;77.00;;;;;;5023760;28;20040;-60
2022/10/31 08:23:11;;;;;;;2.67;0.60;;;25.20;77.40;;;;;;5025700;28;20032;-59
2022/10/31 08:25:39;;;;;;;1.83;0.63;;;25.30;76.80;;;;;;5021975;28;20022;-60
2022/10/31 08:28:07;;;;;;;1.38;0.70;;;25.30;76.50;;;;;;5030443;28;20067;-59
2022/10/31 08:30:36;;;;;;;3.15;0.90;;;25.30;76.40;;;;;;5022235;28;20024;-59
2022/10/31 08:33:12;;;;;;;2.17;1.00;;;25.30;77.50;;;;;;5030658;28;20025;-60
2022/10/31 08:35:40;;;;;;;3.50;1.70;;;25.20;77.40;;;;;;5024888;28;20083;-60
2022/10/31 08:38:08;;;;;;;1.95;0.68;;;25.20;78.30;;;;;;5026044;28;20124;-61
2022/10/31 08:40:36;;;;;;;3.28;0.85;;;25.10;78.50;;;;;;5027010;28;20025;-60
2022/10/31 08:43:06;;;;;;;1.08;0.70;;;25.00;79.00;;;;;;5026037;28;20028;-59
2022/10/31 08:45:35;;;;;;;3.15;0.77;;;25.00;79.60;;;;;;5027697;28;20041;-60
2022/10/31 08:48:04;;;;;;;1.55;0.75;;;24.90;79.80;;;;;;5029102;28;20029;-59
2022/10/31 08:50:34;;;;;;;0.50;0.40;;;24.80;80.40;;;;;;5019102;28;20043;-60
2022/10/31 08:53:07;;;;;;;1.15;0.60;;;24.80;80.30;;;;;;5023990;28;20041;-60
2022/10/31 08:55:39;;;;;;;2.20;0.70;;;24.70;81.00;;;;;;5037075;28;20050;-60
2022/10/31 08:58:09;;;;;;;1.95;0.80;;;24.70;81.30;;;;;;5027706;28;20132;-60
2022/10/31 09:00:37;;;;;;;3.67;0.90;;;24.60;81.80;;;;;;5038788;28;20546;-60
2022/10/31 09:03:12;;;;;;;1.98;0.63;;;24.60;82.40;;;;;;5030046;28;20107;-59
2022/10/31 09:05:40;;;;;;;1.52;0.40;;;24.50;82.80;;;;;;5025556;28;20022;-59
2022/10/31 09:08:08;;;;;;;3.10;0.77;;;24.40;83.30;;;;;;5027566;28;20018;-60
2022/10/31 09:10:37;;;;;;;1.25;0.57;;;24.40;83.80;;;;;;5034271;28;20029;-59
2022/10/31 09:13:09;;;;;;;4.20;0.77;;;24.30;84.20;;;;;;5027435;28;20033;-59
2022/10/31 09:15:38;;;;;;;5.18;0.63;;;24.20;86.00;;;;;;5030724;28;20032;-59
2022/10/31 09:18:07;;;;;;;1.98;0.77;;;24.10;88.70;;;;;;5023143;28;20486;-59
2022/10/31 09:20:35;;;;;;;1.77;0.70;;;23.90;90.30;;;;;;5022127;28;20037;-60
2022/10/31 09:23:10;;;;;;;1.40;0.70;;;23.70;91.50;;;;;;5021930;28;20048;-59
2022/10/31 09:25:37;;;;;;;1.15;0.65;;;23.50;92.30;;;;;;5023582;28;20025;-59
2022/10/31 09:28:07;;;;;;;1.02;0.70;;;23.40;92.80;;;;;;5027359;28;20087;-59
2022/10/31 09:30:36;;;;;;;1.58;0.60;;;23.30;92.50;;;;;;5029324;28;20025;-59
2022/10/31 09:33:12;;;;;;;1.40;0.68;;;23.30;92.70;;;;;;5028054;28;20087;-58
2022/10/31 09:35:40;;;;;;;0.88;0.65;;;23.20;93.00;;;;;;5027661;28;20029;-59
2022/10/31 09:38:11;;;;;;;1.27;0.60;;;23.10;93.00;;;;;;5025735;28;20045;-58
2022/10/31 09:40:44;;;;;;;1.42;0.60;;;23.10;93.20;;;;;;5033009;28;20079;-59
2022/10/31 09:43:21;;;;;;;1.05;0.57;;;23.00;93.80;;;;;;5022828;28;20033;-60
2022/10/31 09:46:05;;;;;;;1.05;0.57;;;23.10;93.50;;;;;;5030582;28;20025;-59
2022/10/31 09:48:53;;;;;;;0.73;0.50;;;23.00;93.50;;;;;;5025492;28;20036;-59
2022/10/31 09:51:37;;;;;;;1.90;0.50;;;23.00;93.60;;;;;;5024871;28;20108;-59
2022/10/31 09:54:39;;;;;;;1.05;0.60;;;23.00;93.50;;;;;;5023740;28;20030;-59
2022/10/31 09:57:14;;;;;;;2.28;0.75;;;23.00;93.50;;;;;;5028926;28;20393;-59
2022/10/31 09:59:44;;;;;;;1.20;0.60;;;23.00;93.80;;;;;;5021208;28;20040;-59
2022/10/31 10:02:30;;;;;;;4.25;0.68;;;23.00;93.80;;;;;;5026340;28;20025;-60
2022/10/31 10:05:05;;;;;;;0.95;0.57;;;23.00;93.90;;;;;;5019461;28;20037;-59
2022/10/31 10:07:45;;;;;;;4.90;0.47;;;22.90;94.10;;;;;;5023187;28;20033;-59
2022/10/31 10:10:45;;;;;;;2.28;0.60;;;23.00;94.10;;;;;;5024777;28;20033;-59
2022/10/31 10:13:12;;;;;;;1.30;0.60;;;22.90;94.20;;;;;;5025091;28;20116;-59
2022/10/31 10:16:13;;;;;;;0.50;0.47;;;23.00;94.20;;;;;;5035246;28;20375;-61
2022/10/31 10:19:01;;;;;;;1.25;0.60;;;22.90;94.40;;;;;;5028144;28;20037;-58
2022/10/31 10:21:37;;;;;;;0.80;0.70;;;22.90;94.50;;;;;;5029121;28;20053;-59
2022/10/31 10:24:18;;;;;;;0.68;0.65;;;22.90;94.60;;;;;;5034777;28;20429;-59
2022/10/31 10:27:10;;;;;;;1.55;0.52;;;22.80;94.90;;;;;;5027271;28;20402;-59
2022/10/31 10:29:45;;;;;;;0.93;0.50;;;22.80;95.60;;;;;;5036454;28;20057;-59
2022/10/31 10:32:38;;;;;;;1.85;0.35;;;22.70;96.10;;;;;;5028746;28;20022;-60
2022/10/31 10:35:26;;;;;;;1.85;0.70;;;22.60;97.50;;;;;;5032430;28;20444;-59
2022/10/31 10:38:00;;;;;;;4.00;0.90;;;22.40;99.40;;;;;;5028940;28;20147;-58
2022/10/31 10:40:29;;;;;;;4.88;1.35;;;22.30;99.90;;;;;;5030355;28;20029;-58
2022/10/31 10:48:49;;;;;;;3.88;1.23;;;21.70;99.90;;;;;;5032885;28;20075;-59
2022/10/31 10:51:31;;;;;;;1.83;0.73;;;21.70;99.90;;;;;;5028008;28;20034;-60
2022/10/31 10:54:16;;;;;;;1.73;1.08;;;21.50;99.90;;;;;;5026289;28;20084;-59
2022/10/31 10:57:14;;;;;;;2.70;0.80;;;21.40;99.90;;;;;;5025481;28;20580;-59
2022/10/31 10:59:41;;;;;;;1.33;0.90;;;21.30;99.90;;;;;;5023913;28;20529;-59
2022/10/31 11:02:26;;;;;;;5.40;1.33;;;21.10;99.90;;;;;;5029541;28;20024;-59
2022/10/31 11:04:59;;;;;;;3.25;1.40;;;21.00;99.90;;;;;;5041260;28;20052;-59
2022/10/31 11:07:37;;;;;;;5.45;1.35;;;20.90;99.90;;;;;;5030491;28;20084;-60
2022/10/31 11:10:12;;;;;;;3.60;1.40;;;20.90;99.90;;;;;;5029284;28;20351;-59
2022/10/31 11:12:40;;;;;;;3.03;1.70;;;20.80;99.90;;;;;;5025353;28;20100;-58
2022/10/31 11:15:25;;;;;;;7.95;2.17;;;20.80;99.90;;;;;;5032166;28;20029;-60
2022/10/31 11:17:53;;;;;;;;;;;20.60;99.90;;;;;;5039340;28;20033;-59
2022/10/31 11:20:20;;;;;;;2.22;1.40;;;20.60;99.90;;;;;;5040085;28;19919;-59
2022/10/31 11:22:48;;;;;;;7.60;1.60;;;20.50;99.90;;;;;;5030948;28;20588;-59
2022/10/31 11:25:26;;;;;;;3.97;1.55;;;20.40;99.90;;;;;;5031245;28;20389;-60
2022/10/31 11:28:09;;;;;;;3.88;1.50;;;20.40;99.90;;;;;;5028402;28;20031;-58
2022/10/31 11:30:50;;;;;;;2.63;1.30;;;20.40;99.90;;;;;;5027164;28;20486;-59
2022/10/31 11:33:26;;;;;;;1.50;1.00;;;20.30;99.90;;;;;;5025308;28;20410;-59
2022/10/31 11:35:54;;;;;;;2.72;1.20;;;20.30;99.90;;;;;;5032077;28;20048;-59
2022/10/31 11:38:32;;;;;;;3.47;1.10;;;20.20;99.90;;;;;;5036004;28;20116;-59
2022/10/31 11:41:24;;;;;;;3.55;0.95;;;20.20;99.90;;;;;;5032203;28;20036;-60
2022/10/31 11:44:02;;;;;;;1.15;0.88;;;20.10;99.90;;;;;;5027697;28;20044;-60
2022/10/31 11:46:38;;;;;;;2.28;0.95;;;20.10;99.90;;;;;;5029613;28;20135;-64
2022/10/31 11:49:13;;;;;;;4.53;1.10;;;20.10;99.90;;;;;;5020225;28;20504;-60
2022/10/31 11:51:41;;;;;;;2.70;1.10;;;20.00;99.90;;;;;;5036074;28;20026;-59
2022/10/31 11:54:24;;;;;;;3.83;1.70;;;20.00;99.90;;;;;;5028738;28;20385;-59
2022/10/31 11:56:51;;;;;;;3.20;1.67;;;20.00;99.90;;;;;;5026886;28;20033;-59
2022/10/31 11:59:24;;;;;;;5.32;1.92;;;19.90;99.90;;;;;;5032714;28;20029;-59
2022/10/31 12:01:53;;;;;;;4.20;1.80;;;19.90;99.90;;;;;;5030107;28;20398;-59
2022/10/31 12:04:38;;;;;;;7.43;2.80;;;19.80;99.90;;;;;;5035248;28;20188;-59
2022/10/31 12:07:06;;;;;;;5.20;2.35;;;19.80;99.90;;;;;;5029757;28;20024;-59
2022/10/31 12:09:38;;;;;;;4.25;2.00;;;19.80;99.90;;;;;;5029500;28;20099;-59
2022/10/31 12:12:40;;;;;;;8.75;3.92;;;19.80;99.90;;;;;;5032041;28;20113;-59
2022/10/31 12:15:14;;;;;;;13.05;4.25;;;19.80;99.90;;;;;;5023557;28;20037;-59
2022/10/31 12:17:52;;;;;;;8.75;3.75;;;19.80;99.90;;;;;;5032889;28;20030;-58
2022/10/31 12:20:38;;;;;;;11.65;4.15;;;19.70;99.90;;;;;;5036129;28;20102;-59
2022/10/31 12:23:20;;;;;;;12.45;4.40;;;19.70;99.90;;;;;;5022513;28;20034;-59
2022/10/31 12:26:02;;;;;;;13.57;4.82;;;19.70;99.90;;;;;;5029030;28;20053;-59
2022/10/31 12:28:53;;;;;;;8.45;2.92;;;19.70;99.90;;;;;;5029280;28;20082;-59
2022/10/31 12:31:52;;;;;;;2.72;1.65;;;19.60;99.90;;;;;;5033425;28;20029;-59
2022/10/31 12:34:29;;;;;;;7.10;2.40;;;19.60;99.90;;;;;;5026249;28;20034;-59
2022/10/31 12:37:18;;;;;;;9.48;3.05;;;19.60;99.90;;;;;;5027938;28;20030;-58
2022/10/31 12:40:26;;;;;;;9.82;3.92;;;19.60;99.90;;;;;;5030462;28;20029;-59
2022/10/31 12:42:59;;;;;;;10.40;3.97;;;19.60;99.90;;;;;;5031644;28;20037;-58
2022/10/31 12:45:46;;;;;;;12.25;5.03;;;19.60;99.90;;;;;;5031583;28;20028;-60
2022/10/31 12:48:28;;;;;;;8.23;3.83;;;19.60;99.90;;;;;;5033398;28;20029;-60
2022/10/31 12:51:09;;;;;;;4.18;2.08;;;19.50;99.90;;;;;;5038510;28;20494;-59
2022/10/31 12:54:00;;;;;;;5.47;2.33;;;19.50;99.90;;;;;;5041670;28;20037;-60
2022/10/31 12:56:53;;;;;;;6.90;3.88;;;19.50;99.90;;;;;;5030209;28;20485;-60
2022/10/31 12:59:32;;;;;;;11.85;4.43;;;19.50;99.90;;;;;;5029282;28;20479;-60
2022/10/31 13:02:04;;;;;;;10.90;3.78;;;19.50;99.90;;;;;;5026061;28;20025;-60
2022/10/31 13:05:22;;;;;;;10.23;4.10;;;19.50;99.90;;;;;;5030691;28;20036;-59
2022/10/31 13:07:56;;;;;;;17.00;4.82;;;19.50;99.90;;;;;;5029637;28;20104;-60
2022/10/31 13:10:29;;;;;;;;;;;19.40;99.90;;;;;;5034272;28;20029;-60
2022/10/31 13:13:04;;;;;;;3.38;2.20;;;19.50;99.90;;;;;;5025195;28;19955;-61
2022/10/31 13:15:42;;;;;;;7.13;1.80;;;19.40;99.90;;;;;;5030369;28;20460;-60
2022/10/31 13:18:19;;;;;;;8.50;2.50;;;19.40;99.90;;;;;;5033285;28;20044;-59
2022/10/31 13:20:48;;;;;;;7.63;3.90;;;19.40;99.90;;;;;;5032452;28;20056;-59
2022/10/31 13:23:34;;;;;;;8.02;3.05;;;19.40;99.90;;;;;;5026376;28;20018;-60
2022/10/31 13:26:11;;;;;;;7.00;2.20;;;19.40;99.90;;;;;;5041154;28;20031;-60